Time;durP1;ratioP1;P1;durP2;ratioP2;P2;SDS_P1;SDS_P2;PMS_P1;PMS_P2;Temp;Humidity;BMP_temperature;BMP_pressure;BME280_temperature;BME280_humidity;BME280_pressure;Samples;Min_cycle;Max_cycle;Signal;HPM_P1;HPM_P2
2023/05/17 00:00:08;;;;;;;10.20;4.80;;;;;;;8.65;94.07;101597.75;4956749;28;20047;-80
2023/05/17 00:02:35;;;;;;;7.45;4.60;;;;;;;8.61;94.40;101606.75;4957258;28;20047;-80
2023/05/17 00:05:01;;;;;;;8.77;4.38;;;;;;;8.55;94.46;101600.25;4957544;28;20519;-79
2023/05/17 00:07:28;;;;;;;10.90;4.72;;;;;;;8.55;95.20;101602.84;4975243;28;20063;-80
2023/05/17 00:09:55;;;;;;;8.98;4.47;;;;;;;8.47;95.37;101602.63;4968764;28;20059;-81
2023/05/17 00:12:23;;;;;;;12.27;5.00;;;;;;;8.45;95.82;101604.53;4983567;28;20071;-81
2023/05/17 00:14:49;;;;;;;8.73;4.55;;;;;;;8.35;95.91;101595.75;4969647;28;20116;-80
2023/05/17 00:17:16;;;;;;;9.15;4.65;;;;;;;8.32;96.07;101602.03;4973975;28;20043;-79
2023/05/17 00:19:43;;;;;;;7.70;4.35;;;;;;;8.27;96.58;101604.13;4974631;28;20070;-80
2023/05/17 00:22:09;;;;;;;7.95;4.55;;;;;;;8.24;96.85;101613.97;4966983;28;20134;-78
2023/05/17 00:24:36;;;;;;;10.02;4.53;;;;;;;8.23;97.34;101610.53;4963822;28;20079;-79
2023/05/17 00:27:03;;;;;;;8.13;4.68;;;;;;;8.16;97.72;101611.94;4976462;28;20051;-78
2023/05/17 00:29:31;;;;;;;7.32;5.10;;;;;;;7.99;97.79;101594.16;4970992;28;20518;-78
2023/05/17 00:31:57;;;;;;;7.45;4.47;;;;;;;8.05;98.22;101608.47;4978722;28;20298;-79
2023/05/17 00:34:24;;;;;;;7.57;5.10;;;;;;;8.14;98.32;101619.03;4970066;28;20469;-77
2023/05/17 00:36:51;;;;;;;8.50;5.18;;;;;;;8.11;98.28;101618.44;4970593;28;20121;-81
2023/05/17 00:39:17;;;;;;;11.50;4.85;;;;;;;8.18;97.96;101609.22;4961870;28;20084;-80
2023/05/17 00:41:44;;;;;;;10.57;5.20;;;;;;;8.19;98.17;101609.09;4972593;28;20110;-81
2023/05/17 00:44:11;;;;;;;6.63;4.70;;;;;;;8.05;98.06;101588.44;4961644;28;20173;-80
2023/05/17 00:46:42;;;;;;;12.27;5.25;;;;;;;8.06;97.70;101595.31;4975298;28;20055;-80
2023/05/17 00:49:09;;;;;;;11.60;5.22;;;;;;;7.97;98.04;101602.09;4963405;28;20130;-78
2023/05/17 00:51:36;;;;;;;15.52;5.95;;;;;;;8.02;98.21;101604.34;4960768;28;20067;-80
2023/05/17 00:54:03;;;;;;;9.95;5.47;;;;;;;7.98;98.23;101613.34;4968447;28;20049;-81
2023/05/17 00:56:31;;;;;;;10.55;4.95;;;;;;;7.98;98.09;101613.34;4975021;28;20110;-80
2023/05/17 00:58:58;;;;;;;10.40;5.35;;;;;;;7.92;98.18;101624.22;4976091;28;20051;-78
2023/05/17 01:01:26;;;;;;;11.20;5.72;;;;;;;7.84;98.29;101616.13;4991378;28;20038;-79
2023/05/17 01:03:54;;;;;;;9.40;5.30;;;;;;;7.81;98.35;101616.38;4987128;28;20079;-80
2023/05/17 01:06:21;;;;;;;9.90;5.18;;;;;;;7.77;98.49;101622.75;4977435;28;20051;-81
2023/05/17 01:08:48;;;;;;;13.57;5.18;;;;;;;7.80;98.49;101619.91;4992424;28;20055;-78
2023/05/17 01:11:29;;;;;;;8.43;5.55;;;;;;;7.72;98.63;101617.88;4991182;28;20051;-79
2023/05/17 01:14:07;;;;;;;11.77;5.88;;;;;;;7.70;98.57;101618.94;4974251;28;20055;-78
2023/05/17 01:16:40;;;;;;;13.80;5.72;;;;;;;7.69;98.60;101622.47;4981150;28;20051;-78
2023/05/17 01:19:23;;;;;;;12.50;6.28;;;;;;;7.66;98.52;101624.38;4971761;28;20055;-78
2023/05/17 01:22:05;;;;;;;10.30;5.05;;;;;;;7.64;98.51;101620.22;4981530;28;20066;-79
2023/05/17 01:24:43;;;;;;;7.25;5.90;;;;;;;7.63;98.55;101627.19;4973115;28;20137;-80
2023/05/17 01:27:14;;;;;;;12.07;5.03;;;;;;;7.63;98.63;101623.75;4970099;28;20116;-78
2023/05/17 01:29:43;;;;;;;12.85;5.40;;;;;;;7.65;98.71;101616.66;4970518;28;20088;-78
2023/05/17 01:32:11;;;;;;;10.15;5.90;;;;;;;7.63;98.68;101629.78;4964536;28;20052;-78
2023/05/17 01:34:37;;;;;;;12.38;6.25;;;;;;;7.62;98.81;101637.72;4957031;28;20127;-78
2023/05/17 01:37:04;;;;;;;10.95;6.20;;;;;;;7.59;98.92;101630.97;4957623;28;20452;-78
2023/05/17 01:39:31;;;;;;;11.93;6.47;;;;;;;7.52;99.06;101627.16;4966709;28;20130;-80
2023/05/17 01:42:04;;;;;;;14.98;6.55;;;;;;;7.51;99.40;101642.91;4960098;28;20103;-78
2023/05/17 01:44:40;;;;;;;12.38;6.30;;;;;;;7.52;99.81;101657.59;4960285;28;20047;-78
2023/05/17 01:47:14;;;;;;;17.42;7.70;;;;;;;7.41;100.00;101665.34;4973929;28;20134;-77
2023/05/17 01:49:44;;;;;;;18.05;7.38;;;;;;;7.39;100.00;101670.66;4982414;28;20051;-79
2023/05/17 01:52:19;;;;;;;13.48;7.20;;;;;;;7.38;100.00;101665.56;4957099;28;20104;-77
2023/05/17 01:54:50;;;;;;;12.45;7.38;;;;;;;7.38;100.00;101661.19;4969214;28;20138;-81
2023/05/17 01:57:20;;;;;;;13.38;7.57;;;;;;;7.33;100.00;101666.72;4966989;28;20108;-80
2023/05/17 01:59:49;;;;;;;12.65;7.68;;;;;;;7.30;100.00;101669.53;4977857;28;20055;-81
2023/05/17 02:02:16;;;;;;;20.42;8.45;;;;;;;7.30;100.00;101671.31;4976580;28;20085;-81
2023/05/17 02:04:43;;;;;;;16.92;7.50;;;;;;;7.25;100.00;101670.81;4958796;28;20586;-82
2023/05/17 02:07:09;;;;;;;19.23;8.32;;;;;;;7.20;100.00;101667.69;4966241;28;20142;-81
2023/05/17 02:09:36;;;;;;;14.38;7.93;;;;;;;7.19;100.00;101671.25;4971226;28;20046;-79
2023/05/17 02:12:02;;;;;;;13.60;8.80;;;;;;;7.20;100.00;101665.09;4959244;28;20078;-78
2023/05/17 02:14:29;;;;;;;14.05;8.45;;;;;;;7.23;100.00;101677.88;4955539;28;20073;-79
2023/05/17 02:16:57;;;;;;;13.93;7.53;;;;;;;7.23;100.00;101667.47;4971488;28;20074;-79
2023/05/17 02:19:24;;;;;;;18.25;9.07;;;;;;;7.20;100.00;101678.94;4958404;28;20182;-78
2023/05/17 02:21:50;;;;;;;17.52;8.45;;;;;;;7.16;100.00;101687.06;4967319;28;20043;-79
2023/05/17 02:24:17;;;;;;;15.38;8.88;;;;;;;7.11;100.00;101674.38;4960277;28;20046;-81
2023/05/17 02:26:44;;;;;;;14.77;8.65;;;;;;;7.15;100.00;101677.59;4967245;28;20051;-78
2023/05/17 02:29:11;;;;;;;19.50;8.98;;;;;;;7.19;100.00;101694.66;4974506;28;20104;-80
2023/05/17 02:31:38;;;;;;;15.80;8.32;;;;;;;7.11;100.00;101700.41;4976402;28;20451;-81
2023/05/17 02:34:05;;;;;;;20.70;9.20;;;;;;;7.09;100.00;101691.88;4969641;28;20086;-79
2023/05/17 02:36:32;;;;;;;18.55;9.07;;;;;;;7.07;100.00;101705.97;4974931;28;20091;-79
2023/05/17 02:39:00;;;;;;;19.52;9.18;;;;;;;7.08;100.00;101705.03;4969114;28;20061;-79
2023/05/17 02:41:26;;;;;;;19.45;9.25;;;;;;;7.09;100.00;101707.50;4957347;28;20051;-80
2023/05/17 02:43:53;;;;;;;24.77;9.35;;;;;;;6.99;100.00;101702.13;4956931;28;20087;-79
2023/05/17 02:46:20;;;;;;;17.20;8.50;;;;;;;6.97;100.00;101704.00;4967147;28;20228;-78
2023/05/17 02:48:46;;;;;;;18.25;8.95;;;;;;;6.91;100.00;101701.81;4969644;28;20119;-78
2023/05/17 02:51:14;;;;;;;19.10;9.43;;;;;;;6.93;100.00;101710.34;4967997;28;20086;-81
2023/05/17 02:53:41;;;;;;;15.55;8.80;;;;;;;6.88;100.00;101707.22;4961439;28;20577;-77
2023/05/17 02:56:08;;;;;;;22.90;9.77;;;;;;;6.88;100.00;101706.41;4959178;28;20131;-79
2023/05/17 02:58:34;;;;;;;20.10;10.18;;;;;;;6.85;100.00;101707.44;4955552;28;20055;-80
2023/05/17 03:01:01;;;;;;;21.00;9.23;;;;;;;6.83;100.00;101705.88;4964739;28;20111;-80
2023/05/17 03:03:30;;;;;;;19.10;9.73;;;;;;;6.89;100.00;101710.66;4967542;28;20553;-82
2023/05/17 03:06:00;;;;;;;17.98;10.10;;;;;;;6.88;100.00;101694.22;4962533;28;20055;-78
2023/05/17 03:08:28;;;;;;;15.98;9.10;;;;;;;6.77;100.00;101686.31;4967111;28;20047;-78
2023/05/17 03:10:55;;;;;;;20.02;9.02;;;;;;;6.77;100.00;101694.13;4968869;28;20074;-79
2023/05/17 03:13:21;;;;;;;16.08;9.57;;;;;;;6.79;100.00;101709.63;4956922;28;20055;-80
2023/05/17 03:15:48;;;;;;;17.73;9.48;;;;;;;6.77;100.00;101701.94;4963852;28;20085;-80
2023/05/17 03:18:15;;;;;;;20.85;8.93;;;;;;;6.76;100.00;101704.63;4966209;28;20093;-81
2023/05/17 03:20:41;;;;;;;22.58;9.45;;;;;;;6.71;100.00;101707.53;4968523;28;20058;-81
2023/05/17 03:23:08;;;;;;;19.00;9.65;;;;;;;6.73;100.00;101715.25;4975429;28;20114;-81
2023/05/17 03:25:36;;;;;;;20.83;8.88;;;;;;;6.69;100.00;101714.63;4963578;28;20619;-78
2023/05/17 03:28:02;;;;;;;22.17;10.38;;;;;;;6.77;100.00;101719.31;4963962;28;20109;-79
2023/05/17 03:30:29;;;;;;;19.63;9.48;;;;;;;6.71;100.00;101712.75;4964323;28;20090;-79
2023/05/17 03:32:56;;;;;;;23.42;9.50;;;;;;;6.74;100.00;101722.09;4957268;28;20464;-80
2023/05/17 03:35:22;;;;;;;19.95;8.80;;;;;;;6.81;100.00;101728.56;4967007;28;20054;-79
2023/05/17 03:37:49;;;;;;;16.30;8.68;;;;;;;6.85;100.00;101735.22;4969970;28;20141;-78
2023/05/17 03:40:16;;;;;;;19.23;9.13;;;;;;;6.79;100.00;101736.47;4965034;28;20138;-79
2023/05/17 03:42:44;;;;;;;19.48;8.85;;;;;;;6.73;100.00;101734.28;4962725;28;20135;-78
2023/05/17 03:45:11;;;;;;;19.92;9.40;;;;;;;6.71;100.00;101743.97;4963700;28;20051;-78
2023/05/17 03:47:38;;;;;;;21.65;10.18;;;;;;;6.74;100.00;101738.56;4967042;28;20142;-78
2023/05/17 03:50:06;;;;;;;14.35;8.68;;;;;;;6.78;100.00;101749.59;4961085;28;20138;-79
2023/05/17 03:52:33;;;;;;;18.67;9.55;;;;;;;6.77;100.00;101748.75;4974823;28;20116;-80
2023/05/17 03:54:59;;;;;;;23.40;10.07;;;;;;;6.87;100.00;101755.00;4959274;28;20551;-80
2023/05/17 03:57:26;;;;;;;22.45;10.07;;;;;;;6.84;100.00;101750.00;4960859;28;20489;-79
2023/05/17 03:59:54;;;;;;;23.60;10.73;;;;;;;6.83;100.00;101735.31;4977421;28;20129;-80
2023/05/17 04:02:20;;;;;;;24.60;9.48;;;;;;;6.83;100.00;101747.50;4967389;28;20111;-80
2023/05/17 04:04:51;;;;;;;22.23;9.48;;;;;;;6.85;100.00;101746.47;4959014;28;20086;-80
2023/05/17 04:07:18;;;;;;;24.75;11.32;;;;;;;6.85;100.00;101746.47;4964838;28;20069;-80
2023/05/17 04:09:45;;;;;;;21.08;10.57;;;;;;;6.91;100.00;101756.44;4965166;28;20051;-81
2023/05/17 04:12:13;;;;;;;27.88;11.27;;;;;;;6.92;100.00;101757.28;4974187;28;20114;-83
2023/05/17 04:14:40;;;;;;;23.95;10.98;;;;;;;7.01;100.00;101753.22;4979281;28;20058;-81
2023/05/17 04:17:08;;;;;;;18.60;10.38;;;;;;;7.21;100.00;101768.28;4970211;28;20090;-81
2023/05/17 04:19:35;;;;;;;23.15;10.77;;;;;;;7.41;100.00;101765.13;4958238;28;20125;-81
2023/05/17 04:22:02;;;;;;;23.33;10.52;;;;;;;7.42;100.00;101758.97;4965541;28;20083;-83
2023/05/17 04:24:28;;;;;;;20.52;11.05;;;;;;;7.37;100.00;101758.47;4970731;28;20146;-82
2023/05/17 04:26:58;;;;;;;18.52;10.45;;;;;;;7.45;100.00;101755.31;4973268;28;20054;-82
2023/05/17 04:29:25;;;;;;;19.00;9.88;;;;;;;7.46;100.00;101751.78;4976171;28;20043;-79
2023/05/17 04:31:51;;;;;;;23.92;11.75;;;;;;;7.59;100.00;101770.78;4967631;28;20083;-80
2023/05/17 04:34:21;;;;;;;16.77;10.68;;;;;;;7.70;100.00;101765.66;4959346;28;20074;-81
2023/05/17 04:36:47;;;;;;;18.60;10.60;;;;;;;7.76;100.00;101767.81;4972128;28;20100;-80
2023/05/17 04:39:14;;;;;;;20.40;10.35;;;;;;;7.79;100.00;101774.59;4962505;28;20470;-79
2023/05/17 04:41:40;;;;;;;22.42;10.45;;;;;;;8.01;100.00;101774.72;4974010;28;20083;-81
2023/05/17 04:44:07;;;;;;;22.13;10.63;;;;;;;8.11;100.00;101780.06;4975833;28;20066;-82
2023/05/17 04:46:34;;;;;;;20.90;11.30;;;;;;;8.17;100.00;101775.25;4963389;28;20051;-82
2023/05/17 04:49:01;;;;;;;25.98;10.95;;;;;;;8.23;100.00;101779.16;4964793;28;20078;-80
2023/05/17 04:51:30;;;;;;;24.73;11.18;;;;;;;8.60;100.00;101777.28;4977988;28;20063;-82
2023/05/17 04:59:34;;;;;;;23.75;11.93;;;;;;;8.97;100.00;101772.75;5029125;28;20053;-81
2023/05/17 05:02:01;;;;;;;27.50;13.32;;;;;;;8.98;100.00;101784.81;5020562;28;20100;-79
2023/05/17 05:04:28;;;;;;;29.67;16.50;;;;;;;8.87;100.00;101767.38;5031303;28;20057;-80
2023/05/17 05:06:56;;;;;;;32.22;15.45;;;;;;;8.91;100.00;101779.25;5021707;28;20066;-80
2023/05/17 05:09:22;;;;;;;34.00;15.35;;;;;;;9.37;100.00;101786.13;5018400;28;20077;-78
2023/05/17 05:11:49;;;;;;;30.90;12.10;;;;;;;9.82;100.00;101794.72;5031464;28;20062;-80
2023/05/17 05:14:15;;;;;;;23.33;11.38;;;;;;;9.94;100.00;101793.72;5014504;28;20077;-79
2023/05/17 05:16:42;;;;;;;27.58;11.20;;;;;;;9.63;99.64;101794.53;5016827;28;20073;-80
2023/05/17 05:19:09;;;;;;;25.50;10.70;;;;;;;9.60;99.52;101794.75;5020242;28;20107;-79
2023/05/17 05:21:35;;;;;;;20.15;11.48;;;;;;;9.40;100.00;101792.91;5017173;28;20046;-81
2023/05/17 05:24:04;;;;;;;28.73;12.80;;;;;;;9.44;100.00;101803.00;5021301;28;20061;-81
2023/05/17 05:26:30;;;;;;;28.60;11.77;;;;;;;9.45;100.00;101812.47;5034025;28;20057;-79
2023/05/17 05:28:57;;;;;;;29.73;11.93;;;;;;;9.44;100.00;101810.84;5030639;28;20046;-79
2023/05/17 05:31:23;;;;;;;24.75;11.82;;;;;;;9.28;100.00;101789.47;5025269;28;20069;-79
2023/05/17 05:33:50;;;;;;;29.27;13.32;;;;;;;9.40;100.00;101819.88;5016442;28;20118;-79
2023/05/17 05:36:17;;;;;;;26.80;12.02;;;;;;;9.47;100.00;101826.25;5015124;28;20054;-80
2023/05/17 05:38:43;;;;;;;33.47;12.68;;;;;;;9.43;100.00;101826.63;5014975;28;20160;-79
2023/05/17 05:41:11;;;;;;;26.88;11.88;;;;;;;9.47;100.00;101826.25;5028941;28;20117;-78
2023/05/17 05:43:38;;;;;;;32.55;12.85;;;;;;;9.34;100.00;101822.94;5013104;28;20092;-79
2023/05/17 05:46:06;;;;;;;27.02;13.38;;;;;;;9.30;100.00;101837.19;5026027;28;20052;-78
2023/05/17 05:48:32;;;;;;;31.55;12.75;;;;;;;9.27;100.00;101840.03;5020752;28;20550;-79
2023/05/17 05:50:59;;;;;;;23.63;12.93;;;;;;;9.25;100.00;101834.09;5029350;28;20105;-79
2023/05/17 05:53:26;;;;;;;26.50;12.90;;;;;;;9.37;100.00;101827.94;5016328;28;20069;-78
2023/05/17 05:55:52;;;;;;;30.02;14.10;;;;;;;9.56;100.00;101845.59;5013655;28;20045;-78
2023/05/17 05:58:20;;;;;;;23.05;13.02;;;;;;;9.64;100.00;101844.06;5014582;28;20557;-78
2023/05/17 06:00:47;;;;;;;33.55;12.55;;;;;;;9.76;100.00;101839.66;5008284;28;20046;-79
2023/05/17 06:03:14;;;;;;;26.25;13.98;;;;;;;10.59;100.00;101841.66;5013703;28;20041;-79
2023/05/17 06:05:41;;;;;;;26.60;12.48;;;;;;;11.96;97.22;101829.88;5010087;28;20046;-78
2023/05/17 06:08:08;;;;;;;27.83;12.75;;;;;;;12.81;91.75;101800.28;5011043;28;20125;-78
2023/05/17 06:10:34;;;;;;;25.08;12.27;;;;;;;12.51;87.81;101799.50;5010834;28;20104;-76
2023/05/17 06:13:01;;;;;;;26.52;13.30;;;;;;;11.81;88.38;101810.28;5011455;28;20096;-77
2023/05/17 06:15:31;;;;;;;27.05;14.02;;;;;;;12.21;87.75;101813.63;5012423;28;20448;-78
2023/05/17 06:17:57;;;;;;;28.42;14.55;;;;;;;12.80;85.61;101815.22;5011405;28;20568;-77
2023/05/17 06:20:24;;;;;;;27.20;15.70;;;;;;;13.76;83.95;101823.69;5020260;28;20049;-78
2023/05/17 06:22:51;;;;;;;21.63;15.07;;;;;;;14.37;79.37;101815.91;5008994;28;20141;-78
2023/05/17 06:25:18;;;;;;;27.27;15.50;;;;;;;14.94;76.43;101797.91;5010044;28;20056;-76
2023/05/17 06:27:45;;;;;;;29.48;16.05;;;;;;;15.02;75.37;101807.66;5006372;28;20433;-79
2023/05/17 06:30:12;;;;;;;27.42;15.65;;;;;;;15.53;73.62;101801.47;5009015;28;20058;-78
2023/05/17 06:32:41;;;;;;;30.30;15.25;;;;;;;15.92;71.87;101797.31;5011439;28;20695;-79
2023/05/17 06:35:08;;;;;;;25.38;15.18;;;;;;;16.72;69.71;101794.84;5004878;28;20154;-79
2023/05/17 06:37:36;;;;;;;26.35;15.68;;;;;;;16.18;67.71;101785.75;5010913;28;20046;-79
2023/05/17 06:40:05;;;;;;;27.63;15.02;;;;;;;15.91;68.95;101802.75;5019039;28;20050;-78
2023/05/17 06:42:31;;;;;;;25.02;14.90;;;;;;;16.15;69.03;101808.03;5017266;28;20084;-79
2023/05/17 06:44:58;;;;;;;28.77;15.02;;;;;;;16.98;67.52;101799.94;5011363;28;20226;-79
2023/05/17 06:47:25;;;;;;;28.73;14.10;;;;;;;17.43;65.53;101787.84;5016157;28;20101;-78
2023/05/17 06:49:53;;;;;;;26.13;13.85;;;;;;;17.55;64.31;101781.97;5014981;28;20161;-80
2023/05/17 06:52:19;;;;;;;22.02;13.32;;;;;;;17.74;63.15;101791.34;5013220;28;20085;-79
2023/05/17 06:54:46;;;;;;;24.40;14.38;;;;;;;18.01;61.73;101792.63;5013531;28;20199;-79
2023/05/17 06:57:13;;;;;;;21.10;13.55;;;;;;;18.88;59.70;101796.53;5012413;28;20060;-79
2023/05/17 06:59:39;;;;;;;19.70;12.80;;;;;;;17.53;60.71;101789.25;5018079;28;20466;-78
2023/05/17 07:02:06;;;;;;;23.95;12.70;;;;;;;16.19;62.81;101790.06;5013953;28;20107;-80
2023/05/17 07:04:33;;;;;;;23.20;12.93;;;;;;;15.95;64.15;101809.34;5020501;28;20051;-81
2023/05/17 07:07:01;;;;;;;23.67;13.52;;;;;;;15.74;64.30;101806.31;5014753;28;20125;-77
2023/05/17 07:09:27;;;;;;;31.38;13.65;;;;;;;14.76;66.93;101803.22;5018127;28;20432;-80
2023/05/17 07:11:54;;;;;;;21.23;12.27;;;;;;;13.79;69.27;101823.41;5016701;28;20156;-79
2023/05/17 07:14:20;;;;;;;23.50;11.40;;;;;;;13.04;71.44;101827.06;5015816;28;20038;-79
2023/05/17 07:16:48;;;;;;;20.67;11.20;;;;;;;12.76;72.91;101824.34;5015055;28;20049;-79
2023/05/17 07:19:14;;;;;;;24.73;10.43;;;;;;;13.15;73.03;101830.34;5017674;28;20068;-79
2023/05/17 07:21:41;;;;;;;18.95;9.18;;;;;;;13.79;71.32;101823.41;5015511;28;20060;-80
2023/05/17 07:24:09;;;;;;;17.35;7.97;;;;;;;15.26;67.08;101811.25;5015314;28;20053;-79
2023/05/17 07:26:36;;;;;;;18.88;7.88;;;;;;;13.78;66.97;101800.69;5019369;28;20059;-79
2023/05/17 07:29:02;;;;;;;18.50;7.35;;;;;;;15.39;65.87;101815.25;5017703;28;20137;-79
2023/05/17 07:31:29;;;;;;;19.33;7.35;;;;;;;15.57;63.29;101808.94;5014566;28;20077;-80
2023/05/17 07:33:55;;;;;;;19.33;7.45;;;;;;;15.04;63.48;101800.44;5015955;28;20045;-79
2023/05/17 07:36:22;;;;;;;19.08;8.63;;;;;;;14.43;64.75;101806.59;5014186;28;20132;-79
2023/05/17 07:38:49;;;;;;;15.68;7.93;;;;;;;14.22;65.65;101812.97;5013080;28;20049;-78
2023/05/17 07:41:21;;;;;;;17.95;7.82;;;;;;;14.80;66.00;101814.28;5012850;28;20050;-79
2023/05/17 07:43:47;;;;;;;16.30;8.07;;;;;;;14.34;67.05;101828.56;5013603;28;20445;-79
2023/05/17 07:46:14;;;;;;;17.85;8.15;;;;;;;15.66;65.90;101835.31;5014802;28;20136;-79
2023/05/17 07:48:42;;;;;;;14.02;7.30;;;;;;;16.67;62.46;101810.38;5026781;28;20056;-80
2023/05/17 07:51:09;;;;;;;19.98;7.13;;;;;;;17.59;58.27;101806.28;5017583;28;20057;-81
2023/05/17 07:53:36;;;;;;;15.43;7.13;;;;;;;16.47;58.51;101806.41;5011733;28;20050;-80
2023/05/17 07:56:03;;;;;;;12.98;7.57;;;;;;;16.15;59.17;101807.22;5015016;28;20124;-79
2023/05/17 07:58:30;;;;;;;16.00;6.97;;;;;;;16.04;60.22;101818.94;5019286;28;20054;-79
2023/05/17 08:00:57;;;;;;;13.18;6.72;;;;;;;16.59;57.82;101823.56;5015134;28;20090;-80
2023/05/17 08:03:24;;;;;;;13.18;6.32;;;;;;;15.93;58.54;101811.34;5015674;28;20136;-78
2023/05/17 08:05:50;;;;;;;16.38;6.95;;;;;;;14.73;59.63;101824.59;5015723;28;20151;-78
2023/05/17 08:08:17;;;;;;;15.43;7.15;;;;;;;13.85;61.82;101817.56;5021905;28;20088;-78
2023/05/17 08:10:44;;;;;;;18.90;7.35;;;;;;;13.47;63.35;101831.75;5023493;28;20069;-79
2023/05/17 08:13:10;;;;;;;14.90;6.75;;;;;;;13.08;64.31;101833.69;5023801;28;20105;-78
2023/05/17 08:15:38;;;;;;;15.93;6.28;;;;;;;13.10;65.38;101837.00;5016302;28;20118;-81
2023/05/17 08:18:05;;;;;;;16.40;6.78;;;;;;;13.76;64.89;101840.31;5012270;28;20154;-80
2023/05/17 08:20:32;;;;;;;15.73;6.45;;;;;;;14.54;62.63;101833.53;5019454;28;20049;-79
2023/05/17 08:22:58;;;;;;;11.80;5.50;;;;;;;13.85;60.21;101822.81;5015226;28;20050;-79
2023/05/17 08:25:25;;;;;;;10.90;5.40;;;;;;;13.90;60.61;101825.84;5015890;28;20057;-78
2023/05/17 08:27:52;;;;;;;13.93;6.32;;;;;;;13.50;60.67;101827.03;5018252;28;20046;-80
2023/05/17 08:30:19;;;;;;;16.00;5.60;;;;;;;13.52;61.76;101832.97;5013462;28;20107;-80
2023/05/17 08:32:49;;;;;;;16.95;6.28;;;;;;;13.70;62.37;101840.91;5010567;28;20111;-78
2023/05/17 08:35:16;;;;;;;13.32;5.90;;;;;;;13.77;60.91;101825.34;5012674;28;20085;-79
2023/05/17 08:37:43;;;;;;;13.23;5.22;;;;;;;14.93;60.55;101825.25;5026067;28;20049;-79
2023/05/17 08:40:10;;;;;;;14.20;6.13;;;;;;;16.20;57.33;101826.88;5016150;28;20146;-79
2023/05/17 08:42:37;;;;;;;17.05;5.00;;;;;;;16.58;55.77;101822.72;5007579;28;20056;-78
2023/05/17 08:45:05;;;;;;;13.32;4.90;;;;;;;16.46;54.06;101833.81;5014237;28;20066;-77
2023/05/17 08:47:33;;;;;;;12.40;5.13;;;;;;;16.28;53.63;101826.06;5017486;28;20056;-80
2023/05/17 08:50:04;;;;;;;14.77;5.03;;;;;;;16.71;52.78;101839.94;5016065;28;20220;-79
2023/05/17 08:52:31;;;;;;;10.48;4.22;;;;;;;15.79;52.83;101833.06;5014451;28;20361;-78
2023/05/17 08:54:59;;;;;;;15.43;4.95;;;;;;;16.03;55.24;101842.88;5018622;28;20052;-78
2023/05/17 08:57:28;;;;;;;11.15;4.57;;;;;;;16.73;54.08;101849.34;5019485;28;20132;-79
2023/05/17 08:59:55;;;;;;;11.43;5.25;;;;;;;16.80;52.58;101849.50;5017698;28;20045;-79
2023/05/17 09:02:23;;;;;;;9.65;4.53;;;;;;;17.39;51.82;101844.75;5023527;28;20141;-78
2023/05/17 09:04:54;;;;;;;18.42;5.38;;;;;;;17.82;52.66;101851.38;5015900;28;20062;-77
2023/05/17 09:07:22;;;;;;;15.05;4.72;;;;;;;17.43;51.83;101849.53;5017602;28;20088;-77
2023/05/17 09:09:52;;;;;;;14.25;4.63;;;;;;;16.83;52.61;101842.09;5012279;28;20694;-76
2023/05/17 09:12:18;;;;;;;13.50;4.90;;;;;;;15.82;53.67;101848.59;5014267;28;20050;-77
2023/05/17 09:14:45;;;;;;;17.98;5.07;;;;;;;15.71;55.57;101857.63;5009212;28;20051;-78
2023/05/17 09:17:15;;;;;;;16.00;5.15;;;;;;;15.51;55.78;101851.75;5014633;28;20069;-78
2023/05/17 09:19:44;;;;;;;17.05;5.53;;;;;;;15.53;56.47;101844.50;5013459;28;20499;-78
2023/05/17 09:22:13;;;;;;;16.80;5.47;;;;;;;17.06;54.81;101855.41;5013253;28;20061;-77
2023/05/17 09:24:42;;;;;;;13.98;5.00;;;;;;;17.10;51.98;101840.03;5015767;28;20514;-78
2023/05/17 09:27:08;;;;;;;10.55;4.70;;;;;;;16.56;52.89;101850.31;5009715;28;20133;-78
2023/05/17 09:29:41;;;;;;;15.55;5.43;;;;;;;16.22;53.82;101851.31;5013685;28;20112;-78
2023/05/17 09:32:13;;;;;;;11.30;4.50;;;;;;;16.53;54.12;101853.31;5009216;28;20105;-77
2023/05/17 09:34:40;;;;;;;17.88;5.13;;;;;;;16.08;54.32;101851.94;5015969;28;20057;-77
2023/05/17 09:37:13;;;;;;;14.13;4.45;;;;;;;16.34;54.24;101854.44;5016214;28;20494;-78
2023/05/17 09:39:43;;;;;;;12.82;4.63;;;;;;;15.90;53.15;101838.03;5014671;28;20569;-78
2023/05/17 09:42:10;;;;;;;12.60;5.10;;;;;;;15.24;54.14;101834.31;5011257;28;20425;-77
2023/05/17 09:44:52;;;;;;;12.82;5.18;;;;;;;15.25;54.45;101840.41;5015842;28;20046;-77
2023/05/17 09:47:25;;;;;;;11.27;5.80;;;;;;;15.85;54.34;101843.81;5020100;28;20056;-78
2023/05/17 09:49:52;;;;;;;11.38;4.78;;;;;;;15.92;53.61;101836.91;5014637;28;20123;-78
2023/05/17 09:52:20;;;;;;;11.10;5.22;;;;;;;15.77;52.69;101830.59;5016654;28;20139;-78
2023/05/17 09:54:55;;;;;;;14.98;5.57;;;;;;;16.43;52.77;101842.06;5017809;28;20045;-77
2023/05/17 09:57:22;;;;;;;10.82;4.72;;;;;;;15.57;52.59;101830.03;5017956;28;20609;-77
2023/05/17 09:59:50;;;;;;;17.33;5.13;;;;;;;16.41;54.53;101838.78;5013800;28;20052;-77
2023/05/17 10:02:24;;;;;;;15.30;6.47;;;;;;;16.39;52.41;101835.47;5016022;28;20073;-78
2023/05/17 10:04:52;;;;;;;17.50;6.50;;;;;;;17.13;52.72;101823.81;5018274;28;20454;-78
2023/05/17 10:07:21;;;;;;;13.13;5.63;;;;;;;16.46;52.26;101831.19;5018233;28;20054;-79
2023/05/17 10:09:52;;;;;;;11.15;6.20;;;;;;;15.56;53.42;101833.66;5018485;28;20045;-77
2023/05/17 10:12:23;;;;;;;13.88;5.90;;;;;;;16.42;53.22;101841.25;5021593;28;20046;-79
2023/05/17 10:14:51;;;;;;;12.87;5.70;;;;;;;16.63;52.51;101827.53;5014901;28;20050;-79
2023/05/17 10:17:19;;;;;;;14.57;5.68;;;;;;;16.22;52.93;101827.53;5016946;28;20053;-78
2023/05/17 10:19:46;;;;;;;11.60;5.95;;;;;;;15.20;54.82;101826.84;5014756;28;20088;-79
2023/05/17 10:22:14;;;;;;;18.48;6.45;;;;;;;14.58;55.42;101829.63;5014666;28;20050;-78
2023/05/17 10:24:42;;;;;;;14.15;5.53;;;;;;;15.73;54.99;101828.44;5019100;28;20073;-78
2023/05/17 10:27:10;;;;;;;16.35;6.22;;;;;;;16.56;50.99;101818.59;5011905;28;20133;-78
2023/05/17 10:29:39;;;;;;;15.02;6.07;;;;;;;17.00;50.88;101805.03;5015323;28;20051;-78
2023/05/17 10:32:07;;;;;;;12.40;5.80;;;;;;;16.30;51.14;101815.31;5013601;28;20104;-78
2023/05/17 10:34:35;;;;;;;13.95;5.47;;;;;;;14.70;53.07;101813.53;5013199;28;20057;-77
2023/05/17 10:37:03;;;;;;;14.52;5.38;;;;;;;14.79;53.92;101813.44;5015429;28;20060;-78
2023/05/17 10:39:31;;;;;;;12.25;4.90;;;;;;;15.11;53.91;101825.19;5009489;28;20058;-78
2023/05/17 10:41:59;;;;;;;13.90;5.55;;;;;;;15.37;53.67;101814.59;5011782;28;20050;-78
2023/05/17 10:44:26;;;;;;;14.93;5.40;;;;;;;15.33;53.42;101811.44;5017510;28;20042;-79
2023/05/17 10:46:56;;;;;;;12.88;5.68;;;;;;;15.39;54.81;101810.81;5013143;28;20143;-79
2023/05/17 10:49:25;;;;;;;13.15;5.70;;;;;;;15.00;55.29;101821.00;5017041;28;20046;-78
2023/05/17 10:51:52;;;;;;;12.50;5.65;;;;;;;15.02;55.19;101820.84;5021191;28;20057;-78
2023/05/17 10:57:04;;;;;;;7.63;5.28;;;;;;;16.07;52.45;101823.06;4976977;28;20047;-81
2023/05/17 10:59:32;;;;;;;14.55;5.70;;;;;;;16.07;51.57;101815.94;4955954;29;20051;-79
2023/05/17 11:02:03;;;;;;;13.10;5.57;;;;;;;15.80;50.65;101810.97;4976262;28;20070;-81
2023/05/17 11:04:33;;;;;;;12.23;5.28;;;;;;;15.94;51.28;101812.97;4957122;29;20123;-81
2023/05/17 11:07:28;;;;;;;12.18;6.07;;;;;;;15.18;51.44;101794.56;4964396;28;20490;-78
2023/05/17 11:10:04;;;;;;;13.82;5.97;;;;;;;15.31;52.35;101796.75;4969302;28;20077;-81
2023/05/17 11:12:34;;;;;;;12.80;5.57;;;;;;;15.58;53.73;101805.31;4950444;28;20062;-79
2023/05/17 11:15:04;;;;;;;11.57;5.85;;;;;;;15.48;54.66;101804.59;4997207;28;20076;-79
2023/05/17 11:17:37;;;;;;;15.45;5.70;;;;;;;16.13;53.67;101804.75;4973038;28;20056;-78
2023/05/17 11:20:08;;;;;;;14.38;5.65;;;;;;;16.90;52.45;101792.84;4980019;28;20077;-79
2023/05/17 11:22:37;;;;;;;9.63;5.63;;;;;;;16.50;51.99;101779.66;4968460;28;20094;-79
2023/05/17 11:25:07;;;;;;;10.50;5.63;;;;;;;16.43;50.92;101790.06;4947912;29;20044;-78
2023/05/17 11:27:39;;;;;;;12.23;5.07;;;;;;;16.77;51.34;101792.53;4943084;28;20458;-79